createdAt,value
2023-05-08T00:00:48.389Z,14.10
2023-05-08T00:03:15.229Z,14.00
2023-05-08T00:05:42.171Z,14.00
2023-05-08T00:08:08.885Z,14.10
2023-05-08T00:10:35.644Z,14.10
2023-05-08T00:13:02.452Z,14.10
2023-05-08T00:15:29.116Z,14.20
2023-05-08T00:17:55.798Z,14.10
2023-05-08T00:20:22.673Z,14.10
2023-05-08T00:22:49.326Z,14.20
2023-05-08T00:25:16.158Z,14.20
2023-05-08T00:27:43.031Z,14.20
2023-05-08T00:30:10.303Z,14.20
2023-05-08T00:32:37.190Z,14.20
2023-05-08T00:35:04.138Z,14.20
2023-05-08T00:37:30.929Z,14.20
2023-05-08T00:39:57.645Z,14.20
2023-05-08T00:42:24.309Z,14.20
2023-05-08T00:44:51.115Z,14.20
2023-05-08T00:47:17.877Z,14.20
2023-05-08T00:49:45.011Z,14.10
2023-05-08T00:52:12.288Z,14.10
2023-05-08T00:54:39.532Z,14.10
2023-05-08T00:57:07.495Z,14.10
2023-05-08T00:59:36.004Z,14.10
2023-05-08T01:02:03.391Z,14.10
2023-05-08T01:04:31.755Z,14.10
2023-05-08T01:06:58.635Z,14.10
2023-05-08T01:09:25.455Z,14.10
2023-05-08T01:12:15.302Z,14.10
2023-05-08T01:15:17.309Z,14.10
2023-05-08T01:18:02.988Z,14.10
2023-05-08T01:21:07.840Z,14.10
2023-05-08T01:24:28.740Z,14.10
2023-05-08T01:27:19.156Z,14.10
2023-05-08T01:30:13.543Z,14.00
2023-05-08T01:32:43.533Z,14.10
2023-05-08T01:35:21.022Z,14.10
2023-05-08T01:37:56.611Z,14.10
2023-05-08T01:40:53.614Z,14.10
2023-05-08T01:43:50.289Z,13.90
2023-05-08T01:46:25.353Z,13.80
2023-05-08T01:49:00.375Z,13.70
2023-05-08T01:51:28.997Z,13.70
2023-05-08T01:54:04.161Z,13.60
2023-05-08T01:56:31.789Z,13.60
2023-05-08T01:59:00.558Z,13.70
2023-05-08T02:01:29.416Z,13.60
2023-05-08T02:03:57.580Z,13.60
2023-05-08T02:06:26.971Z,13.60
2023-05-08T02:08:54.816Z,13.60
2023-05-08T02:11:24.824Z,13.60
2023-05-08T02:13:52.078Z,13.50
2023-05-08T02:16:20.801Z,13.50
2023-05-08T02:18:52.457Z,13.60
2023-05-08T02:21:20.647Z,13.60
2023-05-08T02:23:48.706Z,13.70
2023-05-08T02:26:16.360Z,13.70
2023-05-08T02:28:43.797Z,13.70
2023-05-08T02:31:12.390Z,13.70
2023-05-08T02:33:42.158Z,13.70
2023-05-08T02:36:10.543Z,13.70
2023-05-08T02:38:39.773Z,13.70
2023-05-08T02:41:06.895Z,13.70
2023-05-08T02:43:33.667Z,13.60
2023-05-08T02:46:12.390Z,13.70
2023-05-08T02:48:48.657Z,13.80
2023-05-08T02:51:44.400Z,13.80
2023-05-08T02:54:32.050Z,13.80
2023-05-08T02:57:00.540Z,13.80
2023-05-08T02:59:55.388Z,13.80
2023-05-08T03:02:24.974Z,13.80
2023-05-08T03:04:56.192Z,13.90
2023-05-08T03:07:25.926Z,14.00
2023-05-08T03:10:00.333Z,13.90
2023-05-08T03:12:28.997Z,13.90
2023-05-08T03:15:03.964Z,13.80
2023-05-08T03:17:33.508Z,13.80
2023-05-08T03:20:05.933Z,13.80
2023-05-08T03:22:35.496Z,13.90
2023-05-08T03:25:05.314Z,13.90
2023-05-08T03:27:33.276Z,13.90
2023-05-08T03:30:01.732Z,13.80
2023-05-08T03:32:29.911Z,13.80
2023-05-08T03:34:59.386Z,13.60
2023-05-08T03:37:28.849Z,13.70
2023-05-08T03:39:56.731Z,13.60
2023-05-08T03:42:27.361Z,13.60
2023-05-08T03:44:54.505Z,13.60
2023-05-08T03:47:22.064Z,13.60
2023-05-08T03:49:50.188Z,13.60
2023-05-08T03:52:17.164Z,13.60
2023-05-08T03:54:44.299Z,13.60
2023-05-08T03:57:11.206Z,13.70
2023-05-08T04:00:14.833Z,13.60
2023-05-08T04:02:47.773Z,13.60
2023-05-08T04:05:32.004Z,13.60
2023-05-08T04:08:34.378Z,13.50
2023-05-08T04:11:18.092Z,13.50
2023-05-08T04:13:54.528Z,13.60
2023-05-08T04:16:28.395Z,13.60
2023-05-08T04:19:01.336Z,13.60
2023-05-08T04:21:31.689Z,13.70
2023-05-08T04:24:00.643Z,13.70
2023-05-08T04:26:28.149Z,13.70
2023-05-08T04:28:55.484Z,13.70
2023-05-08T04:31:23.205Z,13.80
2023-05-08T04:33:50.224Z,13.70
2023-05-08T04:36:16.901Z,13.60
2023-05-08T04:38:44.079Z,13.50
2023-05-08T04:41:10.863Z,13.50
2023-05-08T04:43:37.829Z,13.60
2023-05-08T04:46:06.332Z,13.70
2023-05-08T04:48:33.909Z,13.80
2023-05-08T04:51:01.070Z,13.80
2023-05-08T04:53:27.884Z,13.80
2023-05-08T04:55:54.595Z,13.80
2023-05-08T04:58:21.248Z,13.70
2023-05-08T05:00:48.830Z,13.80
2023-05-08T05:03:15.710Z,13.80
2023-05-08T05:05:42.640Z,13.80
2023-05-08T05:08:09.410Z,13.80
2023-05-08T05:10:37.811Z,13.80
2023-05-08T05:13:04.579Z,13.80
2023-05-08T05:15:31.275Z,13.90
2023-05-08T05:17:57.956Z,13.90
2023-05-08T05:20:24.736Z,14.00
2023-05-08T05:22:51.401Z,14.10
2023-05-08T05:25:18.130Z,14.00
2023-05-08T05:27:44.781Z,14.10
2023-05-08T05:30:12.551Z,14.10
2023-05-08T05:32:39.641Z,14.00
2023-05-08T05:35:07.019Z,14.10
2023-05-08T05:37:33.732Z,14.10
2023-05-08T05:40:00.544Z,14.10
2023-05-08T05:42:27.193Z,14.20
2023-05-08T05:44:53.952Z,14.40
2023-05-08T05:47:20.607Z,14.60
2023-05-08T05:49:47.324Z,14.50
2023-05-08T05:52:14.605Z,14.50
2023-05-08T05:54:44.305Z,14.60
2023-05-08T05:57:10.987Z,14.60
2023-05-08T05:59:41.148Z,14.60
2023-05-08T06:02:10.307Z,14.50
2023-05-08T06:04:37.258Z,14.50
2023-05-08T06:07:04.145Z,14.40
2023-05-08T06:09:30.891Z,14.30
2023-05-08T06:11:57.589Z,14.40
2023-05-08T06:14:24.528Z,14.50
2023-05-08T06:16:51.448Z,14.40
2023-05-08T06:19:18.205Z,14.30
2023-05-08T06:21:44.908Z,14.40
2023-05-08T06:24:11.692Z,14.40
2023-05-08T06:26:38.434Z,14.50
2023-05-08T06:29:05.088Z,14.20
2023-05-08T06:31:31.768Z,14.20
2023-05-08T06:33:58.602Z,14.30
2023-05-08T06:36:25.303Z,14.20
2023-05-08T06:38:52.029Z,14.30
2023-05-08T06:41:18.698Z,14.30
2023-05-08T06:43:45.312Z,14.40
2023-05-08T06:46:12.093Z,14.40
2023-05-08T06:48:38.758Z,14.40
2023-05-08T06:51:05.496Z,14.40
2023-05-08T06:53:32.187Z,14.30
2023-05-08T06:55:58.946Z,14.30
2023-05-08T06:58:25.792Z,14.40
2023-05-08T07:00:52.644Z,14.40
2023-05-08T07:03:19.352Z,14.40
2023-05-08T07:05:46.027Z,14.30
2023-05-08T07:08:12.733Z,14.40
2023-05-08T07:10:39.505Z,14.30
2023-05-08T07:13:06.216Z,14.30
2023-05-08T07:15:32.897Z,14.30
2023-05-08T07:17:59.636Z,14.30
2023-05-08T07:20:26.800Z,14.50
2023-05-08T07:22:53.598Z,14.70
2023-05-08T07:25:20.462Z,14.80
2023-05-08T07:27:47.458Z,14.70
2023-05-08T07:30:14.634Z,14.60
2023-05-08T07:32:41.342Z,14.50
2023-05-08T07:35:11.027Z,14.70
2023-05-08T07:37:38.911Z,14.90
2023-05-08T07:40:06.173Z,15.10
2023-05-08T07:42:42.063Z,14.90
2023-05-08T07:45:13.690Z,15.00
2023-05-08T07:47:50.410Z,14.90
2023-05-08T07:50:17.475Z,14.80
2023-05-08T07:52:44.233Z,14.70
2023-05-08T07:55:11.263Z,14.80
2023-05-08T07:57:39.252Z,14.90
2023-05-08T08:00:07.329Z,15.20
2023-05-08T08:02:34.416Z,15.10
2023-05-08T08:05:01.208Z,15.10
2023-05-08T08:07:28.120Z,15.10
2023-05-08T08:09:55.660Z,15.00
2023-05-08T08:12:23.748Z,15.10
2023-05-08T08:14:50.446Z,14.90
2023-05-08T08:17:17.627Z,15.00
2023-05-08T08:19:44.524Z,15.10
2023-05-08T08:22:11.223Z,15.00
2023-05-08T08:24:37.866Z,15.00
2023-05-08T08:27:04.552Z,15.10
2023-05-08T08:29:31.416Z,15.20
2023-05-08T08:31:58.130Z,15.20
2023-05-08T08:34:25.008Z,15.30
2023-05-08T08:36:51.834Z,15.30
2023-05-08T08:39:18.442Z,15.20
2023-05-08T08:41:45.225Z,15.10
2023-05-08T08:44:11.963Z,15.00
2023-05-08T08:46:51.179Z,15.10
2023-05-08T08:49:20.192Z,15.00
2023-05-08T08:51:52.259Z,15.20
2023-05-08T08:54:24.335Z,15.20
2023-05-08T08:56:52.056Z,15.30
2023-05-08T08:59:19.269Z,15.50
2023-05-08T09:01:50.239Z,15.50
2023-05-08T09:04:18.132Z,15.50
2023-05-08T09:06:45.934Z,15.60
2023-05-08T09:09:13.680Z,15.60
2023-05-08T09:11:43.529Z,15.60
2023-05-08T09:14:10.161Z,15.30
2023-05-08T09:16:37.007Z,15.50
2023-05-08T09:19:04.787Z,15.70
2023-05-08T09:21:32.384Z,15.70
2023-05-08T09:24:04.491Z,15.60
2023-05-08T09:26:34.320Z,15.60
2023-05-08T09:29:17.220Z,15.60
2023-05-08T09:31:46.936Z,15.60
2023-05-08T09:34:28.947Z,15.90
2023-05-08T09:36:56.925Z,15.90
2023-05-08T09:39:25.115Z,15.80
2023-05-08T09:42:03.315Z,15.80
2023-05-08T09:44:44.269Z,15.70
2023-05-08T09:47:15.706Z,15.70
2023-05-08T09:50:02.270Z,15.80
2023-05-08T09:52:30.313Z,15.70
2023-05-08T09:55:01.966Z,15.80
2023-05-08T09:57:31.561Z,15.90
2023-05-08T10:00:03.169Z,15.80
2023-05-08T10:02:30.124Z,15.80
2023-05-08T10:04:57.742Z,16.00
2023-05-08T10:07:35.687Z,15.90
2023-05-08T10:10:04.538Z,16.00
2023-05-08T10:12:31.917Z,16.20
2023-05-08T10:14:59.197Z,16.40
2023-05-08T10:17:30.116Z,16.40
2023-05-08T10:20:06.078Z,16.30
2023-05-08T10:22:36.035Z,16.60
2023-05-08T10:25:03.468Z,16.40
2023-05-08T10:27:41.463Z,16.20
2023-05-08T10:30:10.024Z,16.20
2023-05-08T10:32:43.887Z,15.90
2023-05-08T10:35:12.108Z,15.80
2023-05-08T10:37:42.197Z,16.00
2023-05-08T10:40:11.017Z,16.50
2023-05-08T10:42:38.911Z,16.80
2023-05-08T10:45:06.624Z,16.80
2023-05-08T10:47:52.346Z,16.90
2023-05-08T10:50:45.850Z,17.20
2023-05-08T10:53:37.164Z,17.50
2023-05-08T10:56:04.298Z,17.40
2023-05-08T10:58:35.805Z,17.50
2023-05-08T11:01:08.476Z,17.30
2023-05-08T11:03:44.502Z,17.20
2023-05-08T11:06:11.983Z,17.40
2023-05-08T11:09:05.047Z,17.60
2023-05-08T11:11:38.145Z,18.00
2023-05-08T11:14:07.953Z,18.00
2023-05-08T11:17:04.833Z,18.50
2023-05-08T11:19:31.688Z,18.40
2023-05-08T11:22:24.868Z,18.50
2023-05-08T11:25:00.052Z,19.30
2023-05-08T11:27:38.765Z,19.40
2023-05-08T11:30:33.068Z,19.00
2023-05-08T11:33:15.821Z,18.80
2023-05-08T11:36:11.899Z,19.00
2023-05-08T11:38:38.848Z,19.60
2023-05-08T11:41:26.234Z,20.20
2023-05-08T11:44:26.566Z,20.80
2023-05-08T11:46:54.777Z,21.10
2023-05-08T11:49:29.355Z,20.70
2023-05-08T11:51:59.188Z,21.30
2023-05-08T11:54:29.162Z,19.80
2023-05-08T11:56:56.210Z,19.50
2023-05-08T11:59:23.142Z,20.00
2023-05-08T12:02:06.754Z,20.60
2023-05-08T12:04:44.349Z,20.60
2023-05-08T12:07:11.720Z,21.10
2023-05-08T12:09:38.615Z,21.20
2023-05-08T12:12:05.493Z,21.30
2023-05-08T12:14:34.571Z,21.60
2023-05-08T12:17:02.746Z,21.70
2023-05-08T12:19:29.577Z,21.50
2023-05-08T12:21:57.440Z,20.70
2023-05-08T12:24:26.130Z,21.30
2023-05-08T12:26:58.707Z,21.70
2023-05-08T12:29:28.076Z,21.90
2023-05-08T12:31:55.121Z,22.00
2023-05-08T12:34:22.382Z,22.10
2023-05-08T12:36:49.288Z,22.30
2023-05-08T12:39:17.979Z,22.30
2023-05-08T12:41:52.100Z,22.90
2023-05-08T12:44:19.834Z,23.00
2023-05-08T12:46:49.389Z,22.50
2023-05-08T12:49:26.815Z,21.70
2023-05-08T12:52:01.751Z,21.80
2023-05-08T12:54:36.747Z,21.00
2023-05-08T12:57:15.162Z,21.80
2023-05-08T12:59:42.424Z,21.10
2023-05-08T13:02:16.328Z,20.50
2023-05-08T13:04:44.040Z,20.90
2023-05-08T13:07:11.589Z,20.70
2023-05-08T13:09:39.229Z,20.10
2023-05-08T13:12:09.495Z,19.60
2023-05-08T13:14:36.194Z,18.80
2023-05-08T13:17:03.006Z,18.50
2023-05-08T13:19:29.747Z,18.20
2023-05-08T13:21:56.528Z,17.50
2023-05-08T13:24:23.160Z,17.50
2023-05-08T13:26:49.842Z,17.30
2023-05-08T13:29:17.102Z,16.40
2023-05-08T13:31:43.787Z,16.40
2023-05-08T13:34:10.496Z,16.50
2023-05-08T13:36:37.259Z,16.30
2023-05-08T13:39:04.058Z,16.10
2023-05-08T13:41:30.678Z,16.00
2023-05-08T13:43:57.566Z,15.90
2023-05-08T13:46:25.104Z,15.90
2023-05-08T13:48:51.811Z,15.80
2023-05-08T13:51:18.457Z,15.60
2023-05-08T13:53:45.265Z,15.40
2023-05-08T13:56:11.978Z,15.60
2023-05-08T13:58:38.811Z,15.60
2023-05-08T14:01:21.977Z,15.70
2023-05-08T14:03:52.421Z,15.60
2023-05-08T14:06:20.443Z,15.70
2023-05-08T14:08:50.426Z,16.00
2023-05-08T14:11:18.375Z,16.10
2023-05-08T14:13:45.021Z,16.20
2023-05-08T14:16:12.918Z,16.10
2023-05-08T14:18:40.242Z,16.10
2023-05-08T14:21:07.133Z,15.80
2023-05-08T14:23:35.556Z,15.70
2023-05-08T14:26:02.306Z,16.10
2023-05-08T14:28:29.012Z,16.00
2023-05-08T14:30:56.151Z,15.90
2023-05-08T14:33:22.949Z,15.80
2023-05-08T14:35:49.611Z,15.70
2023-05-08T14:38:16.363Z,15.80
2023-05-08T14:40:43.053Z,15.80
2023-05-08T14:43:10.010Z,15.50
2023-05-08T14:45:36.814Z,15.50
2023-05-08T14:48:03.631Z,15.60
2023-05-08T14:50:30.520Z,15.30
2023-05-08T14:52:57.333Z,15.30
2023-05-08T14:55:24.419Z,15.30
2023-05-08T14:57:51.224Z,15.40
2023-05-08T15:00:18.471Z,15.50
2023-05-08T15:02:45.400Z,15.60
2023-05-08T15:05:19.103Z,15.80
2023-05-08T15:07:46.329Z,16.00
2023-05-08T15:10:13.053Z,16.30
2023-05-08T15:12:39.848Z,16.40
2023-05-08T15:15:07.006Z,16.40
2023-05-08T15:17:36.447Z,16.50
2023-05-08T15:20:04.053Z,16.50
2023-05-08T15:22:30.935Z,16.40
2023-05-08T15:25:02.356Z,16.50
2023-05-08T15:27:29.920Z,16.80
2023-05-08T15:29:56.698Z,16.80
2023-05-08T15:32:23.499Z,17.00
2023-05-08T15:34:50.358Z,16.80
2023-05-08T15:37:17.121Z,16.90
2023-05-08T15:39:43.803Z,17.20
2023-05-08T15:42:10.489Z,17.40
2023-05-08T15:44:53.801Z,17.50
2023-05-08T15:47:23.170Z,17.50
2023-05-08T15:49:50.885Z,17.50
2023-05-08T15:52:19.512Z,17.40
2023-05-08T15:54:46.838Z,17.10
2023-05-08T15:57:13.855Z,16.50
2023-05-08T15:59:40.597Z,16.30
2023-05-08T16:02:08.077Z,16.30
2023-05-08T16:04:35.714Z,16.50
2023-05-08T16:07:02.657Z,16.60
2023-05-08T16:09:29.306Z,16.50
2023-05-08T16:11:55.973Z,16.40
2023-05-08T16:14:22.674Z,16.60
2023-05-08T16:16:49.345Z,16.90
2023-05-08T16:19:16.063Z,17.20
2023-05-08T16:21:45.220Z,17.60
2023-05-08T16:24:11.929Z,17.70
2023-05-08T16:26:38.545Z,18.00
2023-05-08T16:29:05.368Z,18.20
2023-05-08T16:31:32.149Z,17.90
2023-05-08T16:33:58.975Z,18.00
2023-05-08T16:36:26.696Z,18.10
2023-05-08T16:38:53.422Z,18.00
2023-05-08T16:41:22.136Z,17.90
2023-05-08T16:43:48.916Z,17.70
2023-05-08T16:46:16.378Z,17.80
2023-05-08T16:48:44.512Z,17.30
2023-05-08T16:51:11.188Z,17.20
2023-05-08T16:53:37.847Z,17.40
2023-05-08T16:56:04.679Z,17.60
2023-05-08T16:58:31.305Z,17.70
2023-05-08T17:00:58.099Z,17.60
2023-05-08T17:03:25.063Z,17.60
2023-05-08T17:05:51.927Z,17.60
2023-05-08T17:08:18.642Z,17.50
2023-05-08T17:10:45.290Z,17.70
2023-05-08T17:13:11.987Z,17.80
2023-05-08T17:15:38.744Z,17.70
2023-05-08T17:18:05.647Z,17.60
2023-05-08T17:20:35.421Z,17.30
2023-05-08T17:23:02.097Z,17.00
2023-05-08T17:25:28.856Z,16.90
2023-05-08T17:27:55.990Z,17.00
2023-05-08T17:30:22.772Z,16.80
2023-05-08T17:32:51.597Z,16.60
2023-05-08T17:35:18.984Z,16.60
2023-05-08T17:37:46.074Z,16.50
2023-05-08T17:40:13.113Z,16.50
2023-05-08T17:42:39.908Z,16.50
2023-05-08T17:45:07.319Z,16.40
2023-05-08T17:47:34.029Z,16.40
2023-05-08T17:50:01.008Z,16.30
2023-05-08T17:52:27.664Z,16.10
2023-05-08T17:54:54.310Z,16.10
2023-05-08T17:57:20.957Z,16.00
2023-05-08T17:59:47.642Z,15.80
2023-05-08T18:02:14.252Z,15.70
2023-05-08T18:04:41.141Z,15.60
2023-05-08T18:07:07.830Z,15.50
2023-05-08T18:09:34.537Z,15.50
2023-05-08T18:12:02.591Z,15.40
2023-05-08T18:14:33.484Z,15.30
2023-05-08T18:17:00.774Z,15.20
2023-05-08T18:19:27.540Z,15.20
2023-05-08T18:21:54.323Z,15.10
2023-05-08T18:24:21.013Z,15.00
2023-05-08T18:26:48.259Z,14.90
2023-05-08T18:29:15.544Z,14.80
2023-05-08T18:31:42.307Z,14.80
2023-05-08T18:34:09.017Z,14.70
2023-05-08T18:36:35.674Z,14.70
2023-05-08T18:39:02.602Z,14.60
2023-05-08T18:41:29.343Z,14.60
2023-05-08T18:43:56.367Z,14.50
2023-05-08T18:46:23.029Z,14.50
2023-05-08T18:48:49.800Z,14.50
2023-05-08T18:51:16.526Z,14.50
2023-05-08T18:53:43.158Z,14.50
2023-05-08T18:56:11.501Z,14.40
2023-05-08T18:58:38.602Z,14.40
2023-05-08T19:01:09.122Z,14.30
2023-05-08T19:03:35.866Z,14.20
2023-05-08T19:06:02.626Z,14.30
2023-05-08T19:08:29.277Z,14.20
2023-05-08T19:10:55.966Z,14.20
2023-05-08T19:13:22.774Z,14.10
2023-05-08T19:15:49.584Z,14.10
2023-05-08T19:18:17.036Z,14.00
2023-05-08T19:20:43.646Z,13.90
2023-05-08T19:23:10.490Z,13.90
2023-05-08T19:25:37.284Z,13.80
2023-05-08T19:28:04.628Z,13.80
2023-05-08T19:30:31.465Z,13.80
2023-05-08T19:32:58.111Z,13.90
2023-05-08T19:35:24.972Z,13.90
2023-05-08T19:37:51.729Z,13.90
2023-05-08T19:40:18.527Z,13.90
2023-05-08T19:42:45.752Z,14.00
2023-05-08T19:45:12.844Z,14.10
2023-05-08T19:47:39.549Z,14.00
2023-05-08T19:50:07.328Z,14.00
2023-05-08T19:52:34.291Z,14.00
2023-05-08T19:55:01.013Z,13.90
2023-05-08T19:57:27.633Z,13.80
2023-05-08T19:59:54.396Z,13.80
2023-05-08T20:02:21.481Z,13.70
2023-05-08T20:05:14.345Z,13.70
2023-05-08T20:07:34.829Z,13.60
2023-05-08T20:10:01.465Z,13.60
2023-05-08T20:12:28.160Z,13.60
2023-05-08T20:14:54.850Z,13.60
2023-05-08T20:17:21.577Z,13.60
2023-05-08T20:19:48.493Z,13.60
2023-05-08T20:22:15.207Z,13.50
2023-05-08T20:24:41.846Z,13.50
2023-05-08T20:27:08.516Z,13.50
2023-05-08T20:29:35.300Z,13.40
2023-05-08T20:32:02.320Z,13.40
2023-05-08T20:34:29.810Z,13.40
2023-05-08T20:36:59.055Z,13.40
2023-05-08T20:39:25.704Z,13.40
2023-05-08T20:41:52.516Z,13.40
2023-05-08T20:44:19.288Z,13.40
2023-05-08T20:46:45.996Z,13.40
2023-05-08T20:49:12.840Z,13.40
2023-05-08T20:51:39.549Z,13.40
2023-05-08T20:54:06.291Z,13.40
2023-05-08T20:56:35.715Z,13.50
2023-05-08T20:59:03.034Z,13.50
2023-05-08T21:01:29.812Z,13.60
2023-05-08T21:03:56.541Z,13.60
2023-05-08T21:06:23.231Z,13.60
2023-05-08T21:08:50.252Z,13.60
2023-05-08T21:11:17.067Z,13.60
2023-05-08T21:13:44.443Z,13.60
2023-05-08T21:16:11.663Z,13.60
2023-05-08T21:18:38.397Z,13.50
2023-05-08T21:21:13.600Z,13.50
2023-05-08T21:23:40.350Z,13.50
2023-05-08T21:26:07.021Z,13.50
2023-05-08T21:28:34.234Z,13.50
2023-05-08T21:31:01.074Z,13.50
2023-05-08T21:33:27.871Z,13.50
2023-05-08T21:35:54.525Z,13.50
2023-05-08T21:38:21.143Z,13.50
2023-05-08T21:40:47.820Z,13.50
2023-05-08T21:43:14.503Z,13.50
2023-05-08T21:45:41.167Z,13.50
2023-05-08T21:48:07.844Z,13.50
2023-05-08T21:50:34.491Z,13.60
2023-05-08T21:53:01.376Z,13.60
2023-05-08T21:55:29.833Z,13.60
2023-05-08T21:57:57.657Z,13.60
2023-05-08T22:00:24.335Z,13.60
2023-05-08T22:02:51.074Z,13.60
2023-05-08T22:05:17.696Z,13.60
2023-05-08T22:07:44.371Z,13.60
2023-05-08T22:10:11.652Z,13.60
2023-05-08T22:12:38.400Z,13.50
2023-05-08T22:15:09.492Z,13.50
2023-05-08T22:17:41.742Z,13.50
2023-05-08T22:20:10.898Z,13.50
2023-05-08T22:22:37.562Z,13.60
2023-05-08T22:25:04.561Z,13.60
2023-05-08T22:27:31.183Z,13.60
2023-05-08T22:30:00.231Z,13.60
2023-05-08T22:32:27.954Z,13.60
2023-05-08T22:34:55.581Z,13.60
2023-05-08T22:37:22.706Z,13.60
2023-05-08T22:39:49.775Z,13.50
2023-05-08T22:42:16.726Z,13.50
2023-05-08T22:44:43.989Z,13.50
2023-05-08T22:47:11.887Z,13.50
2023-05-08T22:49:41.213Z,13.50
2023-05-08T22:52:08.823Z,13.50
2023-05-08T22:54:36.065Z,13.50
2023-05-08T22:57:02.916Z,13.50
2023-05-08T22:59:29.639Z,13.60
2023-05-08T23:01:56.296Z,13.60
2023-05-08T23:04:23.068Z,13.50
2023-05-08T23:06:49.808Z,13.60
2023-05-08T23:09:16.472Z,13.60
2023-05-08T23:11:43.285Z,13.70
2023-05-08T23:14:09.958Z,13.70
2023-05-08T23:16:36.729Z,13.70
2023-05-08T23:19:04.549Z,13.70
2023-05-08T23:21:32.044Z,13.70
2023-05-08T23:23:58.960Z,13.70
2023-05-08T23:26:26.107Z,13.70
2023-05-08T23:28:52.848Z,13.70
2023-05-08T23:31:19.580Z,13.70
2023-05-08T23:33:46.286Z,13.70
2023-05-08T23:36:12.959Z,13.70
2023-05-08T23:38:39.598Z,13.70
2023-05-08T23:41:06.243Z,13.70
2023-05-08T23:43:33.257Z,13.60
2023-05-08T23:45:59.967Z,13.60
2023-05-08T23:48:26.905Z,13.60
2023-05-08T23:50:53.666Z,13.60
2023-05-08T23:53:20.691Z,13.50
2023-05-08T23:55:50.720Z,13.50
2023-05-08T23:58:18.293Z,13.60
